createdAt,value
2023-03-06T00:02:34.428Z,99570.47
2023-03-06T00:05:36.071Z,99569.59
2023-03-06T00:08:37.577Z,99559.78
2023-03-06T00:11:39.080Z,99558.97
2023-03-06T00:14:40.586Z,99554.53
2023-03-06T00:17:42.157Z,99547.44
2023-03-06T00:20:44.462Z,99544.72
2023-03-06T00:23:45.889Z,99540.53
2023-03-06T00:26:47.447Z,99538.66
2023-03-06T00:29:49.735Z,99531.56
2023-03-06T00:32:52.907Z,99525.09
2023-03-06T00:35:54.512Z,99528.84
2023-03-06T00:38:56.029Z,99529.69
2023-03-06T00:41:59.823Z,99513.25
2023-03-06T00:45:01.333Z,99520.34
2023-03-06T00:48:02.971Z,99517.63
2023-03-06T00:51:04.703Z,99505.75
2023-03-06T00:54:06.200Z,99508.47
2023-03-06T00:57:08.141Z,99507.47
2023-03-06T01:00:11.010Z,99515.59
2023-03-06T01:03:12.611Z,99513.72
2023-03-06T01:06:14.322Z,99504.56
2023-03-06T01:09:15.949Z,99504.56
2023-03-06T01:12:17.473Z,99504.56
2023-03-06T01:15:19.255Z,99507.28
2023-03-06T01:18:20.778Z,99513.38
2023-03-06T01:21:22.280Z,99506.06
2023-03-06T01:24:25.621Z,99506.25
2023-03-06T01:27:30.871Z,99501.84
2023-03-06T01:30:32.372Z,99502.72
2023-03-06T01:33:36.603Z,99502.72
2023-03-06T01:36:38.104Z,99500.00
2023-03-06T01:39:39.866Z,99505.44
2023-03-06T01:42:42.041Z,99498.31
2023-03-06T01:45:49.405Z,99501.84
2023-03-06T01:49:02.498Z,99501.00
2023-03-06T01:52:08.950Z,99492.03
2023-03-06T01:55:16.016Z,99489.50
2023-03-06T01:58:18.869Z,99481.56
2023-03-06T02:01:21.143Z,99474.44
2023-03-06T02:04:23.666Z,99476.16
2023-03-06T02:07:25.672Z,99479.69
2023-03-06T02:10:27.188Z,99475.31
2023-03-06T02:13:29.728Z,99466.81
2023-03-06T02:16:33.511Z,99460.56
2023-03-06T02:20:02.916Z,99461.41
2023-03-06T02:23:16.612Z,99454.94
2023-03-06T02:26:19.268Z,99456.97
2023-03-06T02:29:27.434Z,99450.56
2023-03-06T02:32:30.909Z,99448.69
2023-03-06T02:35:35.953Z,99450.34
2023-03-06T02:38:45.418Z,99440.56
2023-03-06T02:41:46.968Z,99435.13
2023-03-06T02:44:52.318Z,99431.59
2023-03-06T02:47:53.824Z,99438.00
2023-03-06T02:50:55.314Z,99423.81
2023-03-06T02:53:56.810Z,99433.63
2023-03-06T02:56:58.357Z,99424.84
2023-03-06T03:00:00.975Z,99429.41
2023-03-06T03:03:02.922Z,99424.00
2023-03-06T03:06:06.870Z,99425.88
2023-03-06T03:09:09.916Z,99420.63
2023-03-06T03:12:11.501Z,99419.63
2023-03-06T03:15:13.873Z,99418.56
2023-03-06T03:18:15.442Z,99407.75
2023-03-06T03:21:18.058Z,99413.16
2023-03-06T03:24:21.727Z,99406.91
2023-03-06T03:27:23.268Z,99405.03
2023-03-06T03:30:24.959Z,99403.34
2023-03-06T03:33:26.734Z,99403.34
2023-03-06T03:36:28.468Z,99401.47
2023-03-06T03:39:30.561Z,99396.06
2023-03-06T03:42:32.183Z,99399.59
2023-03-06T03:45:33.752Z,99400.44
2023-03-06T03:48:35.210Z,99396.91
2023-03-06T03:51:36.986Z,99388.78
2023-03-06T03:54:38.532Z,99378.97
2023-03-06T03:57:40.145Z,99377.09
2023-03-06T04:00:42.384Z,99369.97
2023-03-06T04:03:48.351Z,99363.06
2023-03-06T04:06:51.131Z,99363.25
2023-03-06T04:09:54.128Z,99361.53
2023-03-06T04:12:55.740Z,99361.75
2023-03-06T04:15:59.665Z,99353.41
2023-03-06T04:19:02.759Z,99354.28
2023-03-06T04:22:04.435Z,99354.91
2023-03-06T04:25:09.175Z,99351.22
2023-03-06T04:28:11.515Z,99344.59
2023-03-06T04:31:13.517Z,99343.75
2023-03-06T04:34:15.043Z,99343.53
2023-03-06T04:37:22.545Z,99343.38
2023-03-06T04:40:29.749Z,99340.47
2023-03-06T04:43:31.345Z,99336.91
2023-03-06T04:46:33.083Z,99344.66
2023-03-06T04:49:34.634Z,99334.88
2023-03-06T04:52:36.235Z,99329.28
2023-03-06T04:55:37.691Z,99327.56
2023-03-06T04:58:39.242Z,99323.66
2023-03-06T05:01:40.729Z,99323.00
2023-03-06T05:04:42.289Z,99322.16
2023-03-06T05:07:44.808Z,99325.69
2023-03-06T05:10:46.900Z,99320.50
2023-03-06T05:13:49.292Z,99316.06
2023-03-06T05:16:50.911Z,99326.91
2023-03-06T05:19:52.548Z,99326.06
2023-03-06T05:22:54.716Z,99320.84
2023-03-06T05:25:56.878Z,99320.19
2023-03-06T05:28:58.437Z,99322.25
2023-03-06T05:32:00.025Z,99319.53
2023-03-06T05:35:01.996Z,99325.13
2023-03-06T05:38:03.551Z,99318.19
2023-03-06T05:41:05.293Z,99319.22
2023-03-06T05:44:06.911Z,99315.84
2023-03-06T05:47:09.127Z,99316.06
2023-03-06T05:50:11.754Z,99310.81
2023-03-06T05:53:13.265Z,99304.72
2023-03-06T05:56:14.755Z,99303.91
2023-03-06T05:59:16.317Z,99302.03
2023-03-06T06:02:18.915Z,99300.16
2023-03-06T06:05:20.483Z,99292.88
2023-03-06T06:08:22.007Z,99297.28
2023-03-06T06:11:23.470Z,99297.09
2023-03-06T06:14:28.879Z,99295.03
2023-03-06T06:17:31.525Z,99291.47
2023-03-06T06:20:33.042Z,99291.31
2023-03-06T06:23:34.666Z,99293.81
2023-03-06T06:26:36.122Z,99291.09
2023-03-06T06:29:37.658Z,99298.22
2023-03-06T06:32:39.324Z,99289.91
2023-03-06T06:35:40.846Z,99290.75
2023-03-06T06:38:42.958Z,99283.25
2023-03-06T06:42:02.278Z,99284.97
2023-03-06T06:45:11.476Z,99291.06
2023-03-06T06:48:13.014Z,99284.97
2023-03-06T06:51:14.649Z,99292.91
2023-03-06T06:54:16.179Z,99279.56
2023-03-06T06:57:17.685Z,99283.94
2023-03-06T07:00:19.710Z,99283.09
2023-03-06T07:03:21.205Z,99284.97
2023-03-06T07:06:23.054Z,99285.97
2023-03-06T07:09:24.956Z,99287.84
2023-03-06T07:12:26.407Z,99288.41
2023-03-06T07:15:29.841Z,99296.72
2023-03-06T07:18:31.431Z,99298.78
2023-03-06T07:21:33.069Z,99293.53
2023-03-06T07:24:34.525Z,99295.41
2023-03-06T07:27:36.010Z,99290.19
2023-03-06T07:30:39.826Z,99284.56
2023-03-06T07:33:41.306Z,99287.47
2023-03-06T07:36:42.860Z,99289.97
2023-03-06T07:39:44.334Z,99289.97
2023-03-06T07:42:46.242Z,99297.28
2023-03-06T07:45:59.574Z,99291.00
2023-03-06T07:49:01.031Z,99287.63
2023-03-06T07:52:02.615Z,99286.81
2023-03-06T07:55:04.747Z,99291.56
2023-03-06T07:58:06.174Z,99286.50
2023-03-06T08:01:10.945Z,99293.81
2023-03-06T08:04:12.510Z,99297.72
2023-03-06T08:07:14.038Z,99296.84
2023-03-06T08:10:16.571Z,99291.81
2023-03-06T08:13:18.053Z,99291.13
2023-03-06T08:16:26.610Z,99300.28
2023-03-06T08:19:28.152Z,99299.63
2023-03-06T08:22:29.612Z,99303.53
2023-03-06T08:25:31.064Z,99302.72
2023-03-06T08:28:33.076Z,99309.16
2023-03-06T08:31:37.238Z,99306.63
2023-03-06T08:34:40.979Z,99310.38
2023-03-06T08:37:42.535Z,99311.19
2023-03-06T08:40:44.054Z,99303.91
2023-03-06T08:43:45.550Z,99303.06
2023-03-06T08:46:47.052Z,99299.69
2023-03-06T08:49:48.575Z,99302.41
2023-03-06T08:52:50.027Z,99300.91
2023-03-06T08:55:51.952Z,99301.94
2023-03-06T08:58:54.580Z,99312.78
2023-03-06T09:01:56.148Z,99309.19
2023-03-06T09:04:59.339Z,99311.06
2023-03-06T09:08:00.916Z,99311.06
2023-03-06T09:11:02.543Z,99314.63
2023-03-06T09:14:05.427Z,99310.22
2023-03-06T09:17:06.878Z,99316.47
2023-03-06T09:20:10.692Z,99318.19
2023-03-06T09:23:12.168Z,99319.19
2023-03-06T09:26:15.944Z,99325.44
2023-03-06T09:29:17.514Z,99325.66
2023-03-06T09:32:19.221Z,99326.47
2023-03-06T09:35:20.725Z,99339.34
2023-03-06T09:38:27.345Z,99341.06
2023-03-06T09:41:32.960Z,99347.47
2023-03-06T09:44:38.059Z,99345.78
2023-03-06T09:48:14.911Z,99346.63
2023-03-06T09:51:22.152Z,99345.13
2023-03-06T09:54:44.160Z,99351.22
2023-03-06T09:58:02.307Z,99348.66
2023-03-06T10:01:10.845Z,99349.50
2023-03-06T10:04:40.329Z,99355.78
2023-03-06T10:08:00.770Z,99358.66
2023-03-06T10:11:08.534Z,99355.28
2023-03-06T10:14:21.891Z,99367.31
2023-03-06T10:17:26.150Z,99363.94
2023-03-06T10:20:34.948Z,99368.34
2023-03-06T10:23:53.848Z,99365.44
2023-03-06T10:27:03.788Z,99359.19
2023-03-06T10:30:24.032Z,99363.59
2023-03-06T10:33:59.204Z,99359.88
2023-03-06T10:37:12.793Z,99353.63
2023-03-06T10:40:24.608Z,99350.72
2023-03-06T10:43:27.374Z,99358.00
2023-03-06T10:46:31.041Z,99359.69
2023-03-06T10:49:35.618Z,99352.41
2023-03-06T10:52:37.161Z,99354.44
2023-03-06T10:55:39.916Z,99368.66
2023-03-06T10:58:41.336Z,99365.94
2023-03-06T11:01:50.866Z,99361.53
2023-03-06T11:04:54.165Z,99364.44
2023-03-06T11:07:59.300Z,99368.00
2023-03-06T11:11:02.375Z,99362.75
2023-03-06T11:14:15.843Z,99365.44
2023-03-06T11:17:28.846Z,99378.16
2023-03-06T11:20:48.548Z,99381.06
2023-03-06T11:23:56.227Z,99377.47
2023-03-06T11:27:01.695Z,99366.84
2023-03-06T11:30:07.581Z,99369.34
2023-03-06T11:33:49.572Z,99375.63
2023-03-06T11:37:00.699Z,99370.22
2023-03-06T11:40:13.060Z,99373.09
2023-03-06T11:43:25.550Z,99370.03
2023-03-06T11:46:32.970Z,99367.31
2023-03-06T11:49:44.183Z,99368.16
2023-03-06T11:53:07.047Z,99358.19
2023-03-06T11:56:31.897Z,99352.28
2023-03-06T12:00:01.188Z,99361.06
2023-03-06T12:03:45.994Z,99355.81
2023-03-06T12:07:07.621Z,99361.22
2023-03-06T12:10:29.824Z,99350.41
2023-03-06T12:13:38.218Z,99359.56
2023-03-06T12:16:48.766Z,99354.16
2023-03-06T12:20:05.140Z,99351.59
2023-03-06T12:23:29.663Z,99355.31
2023-03-06T12:26:40.207Z,99351.78
2023-03-06T12:29:53.698Z,99347.19
2023-03-06T12:33:07.422Z,99352.59
2023-03-06T12:36:14.833Z,99350.91
2023-03-06T12:39:35.634Z,99347.34
2023-03-06T12:42:40.259Z,99339.91
2023-03-06T12:45:44.140Z,99346.19
2023-03-06T12:48:53.159Z,99344.31
2023-03-06T12:51:56.675Z,99338.91
2023-03-06T12:55:05.707Z,99342.28
2023-03-06T12:58:47.586Z,99335.88
2023-03-06T13:01:49.033Z,99336.88
2023-03-06T13:05:18.475Z,99334.00
2023-03-06T13:08:44.264Z,99334.16
2023-03-06T13:11:53.456Z,99339.56
2023-03-06T13:15:00.475Z,99333.31
2023-03-06T13:18:21.909Z,99332.31
2023-03-06T13:21:41.832Z,99325.19
2023-03-06T13:24:45.416Z,99332.50
2023-03-06T13:27:46.896Z,99333.50
2023-03-06T13:30:48.426Z,99327.25
2023-03-06T13:33:52.340Z,99326.38
2023-03-06T13:37:13.798Z,99324.69
2023-03-06T13:40:24.741Z,99321.31
2023-03-06T13:43:26.299Z,99318.63
2023-03-06T13:46:35.077Z,99325.91
2023-03-06T13:49:46.478Z,99321.31
2023-03-06T13:52:56.105Z,99322.16
2023-03-06T13:56:31.325Z,99316.56
2023-03-06T14:00:03.143Z,99316.41
2023-03-06T14:03:42.849Z,99308.78
2023-03-06T14:07:24.610Z,99304.88
2023-03-06T14:10:26.494Z,99308.44
2023-03-06T14:13:47.853Z,99300.97
2023-03-06T14:16:50.947Z,99294.72
2023-03-06T14:19:52.573Z,99295.34
2023-03-06T14:22:54.040Z,99286.41
2023-03-06T14:26:17.380Z,99288.75
2023-03-06T14:29:27.432Z,99286.22
2023-03-06T14:32:30.153Z,99284.53
2023-03-06T14:35:34.273Z,99284.53
2023-03-06T14:38:42.609Z,99282.69
2023-03-06T14:41:44.083Z,99275.56
2023-03-06T14:44:47.361Z,99264.75
2023-03-06T14:47:53.365Z,99263.91
2023-03-06T14:50:58.041Z,99268.28
2023-03-06T14:54:01.898Z,99266.44
2023-03-06T14:57:08.418Z,99266.25
2023-03-06T15:00:17.285Z,99264.19
2023-03-06T15:03:27.467Z,99268.78
2023-03-06T15:06:36.078Z,99266.06
2023-03-06T15:09:38.609Z,99266.91
2023-03-06T15:12:40.244Z,99265.88
2023-03-06T15:15:41.724Z,99258.63
2023-03-06T15:19:01.342Z,99260.97
2023-03-06T15:22:02.956Z,99267.22
2023-03-06T15:25:08.627Z,99260.59
2023-03-06T15:28:31.334Z,99256.84
2023-03-06T15:31:33.046Z,99256.00
2023-03-06T15:34:34.548Z,99260.22
2023-03-06T15:37:36.040Z,99258.34
2023-03-06T15:40:37.528Z,99253.13
2023-03-06T15:43:39.761Z,99248.38
2023-03-06T15:46:41.802Z,99256.31
2023-03-06T15:49:43.303Z,99248.84
2023-03-06T15:52:45.950Z,99242.22
2023-03-06T15:55:47.644Z,99249.31
2023-03-06T15:58:49.151Z,99241.84
2023-03-06T16:01:51.939Z,99247.75
2023-03-06T16:04:53.600Z,99242.97
2023-03-06T16:07:55.882Z,99238.22
2023-03-06T16:10:58.036Z,99228.88
2023-03-06T16:14:01.347Z,99234.78
2023-03-06T16:17:02.808Z,99226.66
2023-03-06T16:20:06.053Z,99230.88
2023-03-06T16:23:10.314Z,99229.66
2023-03-06T16:26:20.948Z,99230.13
2023-03-06T16:29:24.603Z,99229.28
2023-03-06T16:32:28.599Z,99228.44
2023-03-06T16:35:30.487Z,99225.72
2023-03-06T16:38:31.963Z,99222.81
2023-03-06T16:41:33.522Z,99224.69
2023-03-06T16:44:35.030Z,99220.31
2023-03-06T16:47:36.945Z,99223.03
2023-03-06T16:50:39.902Z,99213.03
2023-03-06T16:53:42.039Z,99218.44
2023-03-06T16:56:44.241Z,99222.16
2023-03-06T16:59:45.695Z,99219.44
2023-03-06T17:02:51.626Z,99221.97
2023-03-06T17:05:53.142Z,99214.03
2023-03-06T17:08:54.714Z,99211.31
2023-03-06T17:11:56.368Z,99212.19
2023-03-06T17:14:57.856Z,99209.66
2023-03-06T17:17:59.402Z,99213.19
2023-03-06T17:21:00.975Z,99211.31
2023-03-06T17:24:03.645Z,99216.75
2023-03-06T17:27:05.307Z,99214.91
2023-03-06T17:30:07.585Z,99208.81
2023-03-06T17:33:09.053Z,99216.94
2023-03-06T17:36:11.196Z,99213.19
2023-03-06T17:39:12.868Z,99204.41
2023-03-06T17:42:14.452Z,99214.91
2023-03-06T17:45:16.140Z,99208.44
2023-03-06T17:48:17.690Z,99202.19
2023-03-06T17:51:19.173Z,99193.22
2023-03-06T17:54:20.776Z,99200.31
2023-03-06T17:57:22.333Z,99203.69
2023-03-06T18:00:23.892Z,99210.97
2023-03-06T18:03:25.647Z,99204.69
2023-03-06T18:06:30.016Z,99200.97
2023-03-06T18:09:32.082Z,99197.22
2023-03-06T18:12:33.691Z,99197.22
2023-03-06T18:15:38.958Z,99194.50
2023-03-06T18:18:40.664Z,99196.38
2023-03-06T18:21:42.442Z,99194.72
2023-03-06T18:24:43.987Z,99192.84
2023-03-06T18:27:46.347Z,99193.69
2023-03-06T18:30:47.826Z,99193.69
2023-03-06T18:33:49.838Z,99188.25
2023-03-06T18:36:52.766Z,99183.69
2023-03-06T18:39:54.794Z,99183.50
2023-03-06T18:42:56.296Z,99180.78
2023-03-06T18:45:58.040Z,99169.13
2023-03-06T18:49:00.216Z,99162.66
2023-03-06T18:52:01.805Z,99164.31
2023-03-06T18:55:03.608Z,99158.91
2023-03-06T18:58:05.055Z,99154.34
2023-03-06T19:01:07.418Z,99160.41
2023-03-06T19:04:09.002Z,99146.00
2023-03-06T19:07:12.754Z,99148.56
2023-03-06T19:10:14.318Z,99146.84
2023-03-06T19:13:15.927Z,99146.69
2023-03-06T19:16:19.559Z,99136.66
2023-03-06T19:19:26.012Z,99146.69
2023-03-06T19:22:27.530Z,99133.97
2023-03-06T19:25:29.004Z,99131.06
2023-03-06T19:28:30.588Z,99129.19
2023-03-06T19:31:32.202Z,99125.66
2023-03-06T19:34:33.823Z,99123.97
2023-03-06T19:37:36.367Z,99123.13
2023-03-06T19:40:38.201Z,99117.69
2023-03-06T19:43:41.594Z,99119.56
2023-03-06T19:46:43.522Z,99117.91
2023-03-06T19:49:44.996Z,99108.06
2023-03-06T19:52:46.512Z,99106.41
2023-03-06T19:55:48.032Z,99095.56
2023-03-06T19:58:49.573Z,99087.44
2023-03-06T20:01:51.035Z,99086.63
2023-03-06T20:04:53.849Z,99083.91
2023-03-06T20:07:55.416Z,99079.50
2023-03-06T20:10:56.956Z,99083.03
2023-03-06T20:14:00.512Z,99074.06
2023-03-06T20:17:02.249Z,99062.41
2023-03-06T20:20:04.128Z,99056.97
2023-03-06T20:23:06.191Z,99051.56
2023-03-06T20:26:10.234Z,99048.84
2023-03-06T20:29:12.390Z,99041.56
2023-03-06T20:32:13.928Z,99036.13
2023-03-06T20:35:15.465Z,99036.13
2023-03-06T20:38:16.995Z,99028.22
2023-03-06T20:41:21.859Z,99024.28
2023-03-06T20:44:23.357Z,99033.44
2023-03-06T20:47:24.881Z,99020.72
2023-03-06T20:50:26.718Z,99017.00
2023-03-06T20:53:28.514Z,99013.25
2023-03-06T20:56:32.791Z,99009.69
2023-03-06T20:59:34.399Z,99006.16
2023-03-06T21:02:35.934Z,99008.22
2023-03-06T21:05:37.406Z,99007.16
2023-03-06T21:08:38.905Z,98999.03
2023-03-06T21:11:40.459Z,98990.91
2023-03-06T21:14:41.940Z,98989.06
2023-03-06T21:17:43.653Z,98987.56
2023-03-06T21:20:45.158Z,98993.63
2023-03-06T21:23:48.111Z,98981.78
2023-03-06T21:26:51.132Z,98976.34
2023-03-06T21:29:52.718Z,98970.94
2023-03-06T21:32:54.202Z,98980.72
2023-03-06T21:35:55.722Z,98967.19
2023-03-06T21:38:57.372Z,98958.88
2023-03-06T21:41:58.815Z,98946.16
2023-03-06T21:45:00.283Z,98945.09
2023-03-06T21:48:02.224Z,98935.97
2023-03-06T21:51:23.997Z,98923.91
2023-03-06T21:54:26.868Z,98917.66
2023-03-06T21:57:28.384Z,98908.47
2023-03-06T22:00:29.847Z,98900.16
2023-03-06T22:03:31.290Z,98893.88
2023-03-06T22:06:32.866Z,98894.75
2023-03-06T22:09:36.785Z,98887.22
2023-03-06T22:12:39.874Z,98880.97
2023-03-06T22:15:49.797Z,98868.91
2023-03-06T22:18:51.787Z,98865.38
2023-03-06T22:21:53.350Z,98859.94
2023-03-06T22:24:54.844Z,98850.16
2023-03-06T22:27:56.299Z,98847.22
2023-03-06T22:31:12.784Z,98837.03
2023-03-06T22:34:14.331Z,98830.97
2023-03-06T22:37:16.016Z,98828.25
2023-03-06T22:40:17.632Z,98819.47
2023-03-06T22:43:19.956Z,98813.22
2023-03-06T22:46:21.486Z,98809.69
2023-03-06T22:49:22.966Z,98806.31
2023-03-06T22:52:24.530Z,98795.69
2023-03-06T22:55:26.508Z,98789.41
2023-03-06T22:58:34.187Z,98782.34
2023-03-06T23:01:35.806Z,98772.72
2023-03-06T23:04:37.415Z,98766.47
2023-03-06T23:07:38.937Z,98765.00
2023-03-06T23:10:40.366Z,98749.97
2023-03-06T23:14:01.375Z,98741.03
2023-03-06T23:17:21.474Z,98729.53
2023-03-06T23:20:43.433Z,98730.56
2023-03-06T23:24:04.267Z,98727.22
2023-03-06T23:27:05.869Z,98723.88
2023-03-06T23:30:09.120Z,98717.63
2023-03-06T23:33:10.865Z,98715.53
2023-03-06T23:36:14.194Z,98702.19
2023-03-06T23:39:16.681Z,98703.22
2023-03-06T23:42:19.132Z,98686.34
2023-03-06T23:45:20.965Z,98694.47
2023-03-06T23:48:22.509Z,98680.94
2023-03-06T23:51:24.242Z,98670.09
2023-03-06T23:54:25.747Z,98666.75
2023-03-06T23:57:27.246Z,98658.41
